Time;durP1;ratioP1;P1;durP2;ratioP2;P2;SDS_P1;SDS_P2;PMS_P1;PMS_P2;Temp;Humidity;BMP_temperature;BMP_pressure;BME280_temperature;BME280_humidity;BME280_pressure;Samples;Min_cycle;Max_cycle;Signal;HPM_P1;HPM_P2
2022/09/19 00:01:15;;;;;;;1.52;0.60;;;;;;;25.13;35.40;98863.56;4716811;30;20105;-86
2022/09/19 00:03:45;;;;;;;1.48;0.80;;;;;;;25.07;35.38;98849.22;4732204;30;20398;-86
2022/09/19 00:06:12;;;;;;;3.13;1.20;;;;;;;25.06;35.41;98852.28;4745676;30;20457;-86
2022/09/19 00:08:39;;;;;;;3.08;0.85;;;;;;;25.10;35.27;98853.25;4732020;30;20225;-86
2022/09/19 00:11:06;;;;;;;1.13;1.00;;;;;;;25.05;35.55;98846.03;4746107;30;20032;-86
2022/09/19 00:13:31;;;;;;;1.52;0.82;;;;;;;24.98;35.53;98839.44;4731131;30;20691;-86
2022/09/19 00:15:57;;;;;;;2.17;1.02;;;;;;;24.97;35.40;98844.09;4731506;30;20032;-85
2022/09/19 00:18:23;;;;;;;0.85;0.82;;;;;;;24.97;35.27;98843.28;4716256;30;20028;-86
2022/09/19 00:20:51;;;;;;;1.02;0.80;;;;;;;24.97;35.42;98848.75;4746333;30;20283;-86
2022/09/19 00:26:08;;;;;;;2.97;1.02;;;;;;;24.92;35.42;98834.13;4747324;30;20051;-85
2022/09/19 00:28:34;;;;;;;1.40;0.70;;;;;;;24.97;35.25;98840.56;4737314;30;20124;-86
2022/09/19 00:31:00;;;;;;;3.53;0.88;;;;;;;24.92;35.25;98836.88;4735478;30;20259;-86
2022/09/19 00:33:30;;;;;;;0.82;0.73;;;;;;;24.92;35.49;98842.34;4736995;30;20119;-86
2022/09/19 00:35:56;;;;;;;1.23;0.77;;;;;;;24.91;35.03;98837.19;4751180;30;20621;-86
2022/09/19 00:38:25;;;;;;;1.40;0.80;;;;;;;24.90;35.21;98833.63;4751273;30;20420;-86
2022/09/19 00:40:50;;;;;;;1.67;0.98;;;;;;;24.83;35.29;98833.31;4751833;30;20032;-86
2022/09/19 00:43:17;;;;;;;1.23;0.70;;;;;;;24.86;35.15;98837.34;4721675;30;20074;-86
2022/09/19 00:45:43;;;;;;;1.63;0.70;;;;;;;24.89;35.03;98839.44;4722547;30;20206;-86
2022/09/19 00:48:13;;;;;;;1.75;0.70;;;;;;;24.85;35.17;98836.53;4736108;30;20122;-86
2022/09/19 00:50:39;;;;;;;2.05;0.70;;;;;;;24.79;35.12;98831.56;4737524;30;20032;-86
2022/09/19 00:53:08;;;;;;;1.30;0.80;;;;;;;24.80;35.26;98831.25;4736876;30;20035;-86
2022/09/19 00:55:34;;;;;;;2.10;0.90;;;;;;;24.41;35.04;98783.75;4736731;30;20032;-86
2022/09/19 00:58:19;;;;;;;1.40;1.00;;;;;;;24.85;35.06;98849.38;4737058;30;20171;-86
2022/09/19 01:00:45;;;;;;;5.15;0.90;;;;;;;24.80;34.97;98842.16;4760761;30;20051;-87
2022/09/19 01:03:10;;;;;;;1.08;0.60;;;;;;;24.68;35.02;98831.88;4764952;30;20100;-87
2022/09/19 01:05:45;;;;;;;1.50;0.80;;;;;;;24.72;34.97;98829.31;4768831;30;20031;-86
2022/09/19 01:08:56;;;;;;;1.08;0.77;;;;;;;24.79;35.09;98837.81;4762965;30;20071;-86
2022/09/19 01:11:29;;;;;;;1.77;0.70;;;;;;;24.72;34.98;98832.03;4768404;30;20066;-86
2022/09/19 01:14:25;;;;;;;0.88;0.80;;;;;;;24.78;35.06;98841.66;4748932;30;20398;-86
2022/09/19 01:17:04;;;;;;;0.70;0.60;;;;;;;24.68;35.11;98831.03;4733509;30;20048;-87
2022/09/19 01:19:54;;;;;;;0.60;0.57;;;;;;;24.73;35.02;98839.09;4749100;30;20554;-87
2022/09/19 01:22:40;;;;;;;0.90;0.73;;;;;;;24.72;35.02;98838.28;4768972;30;20050;-86
2022/09/19 01:25:17;;;;;;;0.63;0.60;;;;;;;24.73;35.10;98847.28;4747615;30;20162;-86
2022/09/19 01:27:52;;;;;;;1.20;0.63;;;;;;;24.69;35.18;98838.91;4770573;30;20071;-86
2022/09/19 01:30:20;;;;;;;0.88;0.75;;;;;;;24.61;35.28;98842.47;4769502;30;20043;-86
2022/09/19 01:33:17;;;;;;;1.33;0.60;;;;;;;24.66;34.99;98839.56;4763042;30;20398;-86
2022/09/19 01:35:44;;;;;;;1.65;0.45;;;;;;;24.64;34.88;98841.00;4761061;30;20135;-86
2022/09/19 01:38:11;;;;;;;0.50;0.50;;;;;;;24.60;34.95;98840.84;4731090;30;20063;-87
2022/09/19 01:40:42;;;;;;;0.60;0.60;;;;;;;24.59;35.11;98835.69;4737339;30;20032;-86
2022/09/19 01:43:15;;;;;;;2.25;0.93;;;;;;;24.61;35.01;98841.63;4742734;30;20098;-87
2022/09/19 01:45:45;;;;;;;0.93;0.60;;;;;;;24.52;35.07;98834.19;4745853;30;20489;-87
2022/09/19 01:48:33;;;;;;;0.68;0.68;;;;;;;24.60;35.12;98840.84;4747732;30;20500;-87
2022/09/19 01:51:01;;;;;;;0.55;0.50;;;;;;;24.58;34.82;98842.28;4774335;29;20536;-87
2022/09/19 01:53:36;;;;;;;0.73;0.65;;;;;;;24.52;34.98;98833.41;4759380;30;20039;-87
2022/09/19 01:56:39;;;;;;;0.60;0.60;;;;;;;24.55;35.01;98836.31;4746601;30;20028;-87
2022/09/19 01:59:17;;;;;;;1.08;0.60;;;;;;;24.52;34.91;98830.66;4748605;30;20482;-87
2022/09/19 02:02:13;;;;;;;1.35;0.60;;;;;;;24.51;34.86;98827.16;4743078;30;20488;-86
2022/09/19 02:04:58;;;;;;;0.40;0.40;;;;;;;24.48;34.85;98827.78;4738828;30;20052;-87
2022/09/19 02:07:42;;;;;;;1.15;0.60;;;;;;;24.45;35.06;98825.69;4724595;30;20044;-86
2022/09/19 02:10:26;;;;;;;0.40;0.40;;;;;;;24.47;34.88;98830.81;4763974;30;20066;-87
2022/09/19 02:12:53;;;;;;;0.63;0.52;;;;;;;24.44;34.93;98826.81;4739934;30;20754;-86
2022/09/19 02:15:23;;;;;;;0.73;0.57;;;;;;;24.44;35.02;98826.00;4760533;30;20401;-86
2022/09/19 02:17:58;;;;;;;2.13;0.57;;;;;;;24.46;34.78;98826.50;4746412;30;20085;-86
2022/09/19 02:20:33;;;;;;;0.50;0.50;;;;;;;24.45;34.83;98824.88;4766561;30;20502;-86
2022/09/19 02:23:20;;;;;;;0.40;0.40;;;;;;;24.44;35.03;98826.81;4751443;30;20036;-87
2022/09/19 02:25:46;;;;;;;1.38;0.57;;;;;;;24.34;35.01;98808.78;4757646;30;20112;-87
2022/09/19 02:28:29;;;;;;;0.60;0.60;;;;;;;24.40;35.11;98820.38;4736340;30;20028;-86
2022/09/19 02:31:05;;;;;;;1.00;0.60;;;;;;;24.37;35.01;98823.75;4762018;30;20093;-86
2022/09/19 02:33:35;;;;;;;0.77;0.60;;;;;;;24.36;34.87;98822.94;4750521;30;20078;-86
2022/09/19 02:36:13;;;;;;;1.10;0.75;;;;;;;24.28;35.07;98818.25;4761726;30;20379;-87
2022/09/19 02:39:09;;;;;;;0.93;0.50;;;;;;;24.40;35.04;98831.28;4738979;30;20028;-86
2022/09/19 02:42:00;;;;;;;1.42;0.50;;;;;;;24.35;35.17;98831.44;4765770;30;20117;-86
2022/09/19 02:44:53;;;;;;;0.90;0.50;;;;;;;24.33;35.04;98829.00;4763390;30;20490;-86
2022/09/19 02:47:30;;;;;;;0.60;0.60;;;;;;;24.33;35.07;98826.28;4751101;30;20490;-86
2022/09/19 02:50:03;;;;;;;0.63;0.50;;;;;;;24.29;34.89;98819.88;4742963;30;20028;-86
2022/09/19 02:52:30;;;;;;;0.75;0.40;;;;;;;24.25;34.85;98818.91;4751092;30;20504;-86
2022/09/19 02:55:01;;;;;;;1.83;0.50;;;;;;;24.18;35.03;98807.63;4733189;30;20039;-86
2022/09/19 02:57:29;;;;;;;0.60;0.50;;;;;;;24.26;35.18;98816.97;4736288;30;20028;-86
2022/09/19 02:59:58;;;;;;;0.50;0.50;;;;;;;24.08;35.12;98803.28;4735856;30;20035;-87
2022/09/19 03:02:38;;;;;;;0.70;0.50;;;;;;;24.16;35.26;98821.59;4753887;30;20051;-87
2022/09/19 03:05:10;;;;;;;0.57;0.50;;;;;;;24.21;34.99;98817.09;4743224;30;20038;-87
2022/09/19 03:07:49;;;;;;;0.80;0.50;;;;;;;24.18;35.07;98815.81;4758448;30;20077;-87
2022/09/19 03:10:17;;;;;;;0.40;0.40;;;;;;;24.17;35.12;98816.94;4726960;30;20505;-87
2022/09/19 03:12:54;;;;;;;0.50;0.47;;;;;;;24.18;35.25;98819.34;4739723;30;20051;-87
2022/09/19 03:15:40;;;;;;;4.20;0.50;;;;;;;24.18;34.95;98816.63;4761927;30;20063;-86
2022/09/19 03:18:10;;;;;;;0.50;0.50;;;;;;;24.19;35.08;98810.03;4760530;30;20059;-87
2022/09/19 03:20:39;;;;;;;0.50;0.50;;;;;;;24.19;35.25;98809.22;4765793;30;20027;-85
2022/09/19 03:23:08;;;;;;;1.30;0.40;;;;;;;24.16;35.35;98810.69;4745416;30;20040;-85
2022/09/19 03:25:34;;;;;;;0.80;0.60;;;;;;;24.14;34.97;98806.66;4739105;30;20023;-85
2022/09/19 03:28:03;;;;;;;0.63;0.50;;;;;;;24.11;35.45;98802.66;4747849;30;20046;-86
2022/09/19 03:30:31;;;;;;;1.15;0.50;;;;;;;24.00;34.93;98791.19;4740505;30;20032;-85
2022/09/19 03:32:59;;;;;;;0.63;0.43;;;;;;;24.04;35.18;98788.63;4727235;30;20306;-85
2022/09/19 03:35:25;;;;;;;1.25;0.50;;;;;;;24.06;35.10;98791.88;4735779;30;20032;-85
2022/09/19 03:37:56;;;;;;;0.45;0.38;;;;;;;24.15;35.14;98802.81;4742549;30;20042;-84
2022/09/19 03:40:25;;;;;;;0.40;0.40;;;;;;;24.06;35.17;98791.88;4757967;30;20181;-85
2022/09/19 03:42:56;;;;;;;0.40;0.30;;;;;;;24.14;35.52;98817.56;4748885;30;20034;-85
2022/09/19 03:45:22;;;;;;;2.58;0.40;;;;;;;24.09;35.52;98810.31;4761211;30;20028;-85
2022/09/19 03:47:47;;;;;;;0.60;0.47;;;;;;;24.12;35.33;98798.78;4734835;30;20074;-85
2022/09/19 03:50:13;;;;;;;0.40;0.40;;;;;;;24.04;35.29;98791.34;4764742;30;20114;-85
2022/09/19 03:52:38;;;;;;;0.63;0.43;;;;;;;24.04;35.40;98799.53;4765214;30;20028;-85
2022/09/19 03:55:05;;;;;;;0.35;0.35;;;;;;;24.05;35.08;98803.88;4752999;30;20122;-85
2022/09/19 03:57:30;;;;;;;0.68;0.60;;;;;;;24.06;35.17;98810.97;4755070;30;20124;-85
2022/09/19 03:59:56;;;;;;;0.93;0.50;;;;;;;24.03;35.22;98803.41;4738523;30;20120;-85
2022/09/19 04:02:22;;;;;;;0.40;0.40;;;;;;;24.07;35.28;98804.38;4764278;30;20036;-85
2022/09/19 04:04:47;;;;;;;0.38;0.38;;;;;;;24.07;35.35;98818.03;4718797;30;20533;-85
2022/09/19 04:07:15;;;;;;;1.10;0.40;;;;;;;24.04;35.47;98805.00;4764289;30;20035;-86
2022/09/19 04:09:44;;;;;;;0.90;0.60;;;;;;;24.05;35.26;98809.34;4740758;30;20047;-85
2022/09/19 04:12:10;;;;;;;0.98;0.40;;;;;;;23.97;35.17;98804.66;4763326;30;20162;-85
2022/09/19 04:14:36;;;;;;;1.17;0.40;;;;;;;24.06;35.52;98821.06;4764641;30;20027;-85
2022/09/19 04:17:01;;;;;;;0.50;0.50;;;;;;;24.10;35.30;98819.31;4763936;30;20488;-85
2022/09/19 04:19:30;;;;;;;0.40;0.40;;;;;;;24.14;35.41;98818.38;4754120;30;20561;-85
2022/09/19 04:21:59;;;;;;;0.50;0.50;;;;;;;24.08;35.26;98799.75;4765199;30;20513;-85
2022/09/19 04:24:25;;;;;;;0.40;0.40;;;;;;;24.12;35.09;98815.16;4764142;30;20081;-84
2022/09/19 04:26:53;;;;;;;0.40;0.40;;;;;;;24.11;35.16;98808.09;4741763;30;20031;-84
2022/09/19 04:29:19;;;;;;;0.40;0.40;;;;;;;24.11;35.46;98815.47;4757022;30;20111;-85
2022/09/19 04:31:45;;;;;;;0.57;0.45;;;;;;;24.08;35.19;98819.63;4741840;30;20423;-85
2022/09/19 04:34:14;;;;;;;0.43;0.43;;;;;;;23.98;35.39;98809.00;4737533;30;20031;-85
2022/09/19 04:36:40;;;;;;;0.57;0.57;;;;;;;24.07;35.59;98828.13;4747420;30;20058;-85
2022/09/19 04:39:06;;;;;;;0.60;0.60;;;;;;;23.95;35.39;98820.53;4744013;30;20560;-85
2022/09/19 04:41:35;;;;;;;0.50;0.50;;;;;;;24.03;35.22;98833.44;4751025;30;20032;-85
2022/09/19 04:44:01;;;;;;;0.30;0.30;;;;;;;23.98;35.25;98825.38;4739870;30;20555;-85
2022/09/19 04:46:28;;;;;;;0.60;0.50;;;;;;;23.93;35.31;98818.13;4742458;30;20533;-84
2022/09/19 04:48:57;;;;;;;0.60;0.60;;;;;;;23.98;35.36;98831.63;4734076;30;20032;-84
2022/09/19 04:51:24;;;;;;;0.50;0.50;;;;;;;23.99;35.30;98826.97;4756995;30;20024;-85
2022/09/19 04:53:50;;;;;;;0.40;0.40;;;;;;;23.94;35.17;98818.91;4744180;30;20125;-85
2022/09/19 04:56:17;;;;;;;1.25;0.60;;;;;;;23.94;35.33;98830.66;4734659;30;20124;-85
2022/09/19 04:58:44;;;;;;;0.70;0.40;;;;;;;23.94;35.39;98824.38;4753588;30;20274;-84
2022/09/19 05:01:10;;;;;;;0.60;0.60;;;;;;;23.96;35.57;98828.41;4747885;30;20316;-84
2022/09/19 05:03:36;;;;;;;0.50;0.50;;;;;;;23.94;35.52;98829.84;4745608;30;20728;-84
2022/09/19 05:06:02;;;;;;;0.40;0.40;;;;;;;23.85;35.50;98816.16;4734098;30;20032;-84
2022/09/19 05:08:29;;;;;;;0.50;0.50;;;;;;;23.92;35.37;98827.44;4724216;30;20035;-85
2022/09/19 05:10:55;;;;;;;0.50;0.50;;;;;;;23.88;35.55;98822.94;4746019;30;20048;-84
2022/09/19 05:13:25;;;;;;;0.55;0.55;;;;;;;23.85;35.49;98809.91;4738008;30;20393;-84
2022/09/19 05:15:51;;;;;;;0.30;0.30;;;;;;;23.95;35.77;98832.25;4739598;30;20032;-84
2022/09/19 05:18:20;;;;;;;0.50;0.40;;;;;;;23.85;35.57;98820.81;4725240;30;20119;-84
2022/09/19 05:20:45;;;;;;;0.50;0.50;;;;;;;23.92;35.73;98826.63;4755970;30;20027;-84
2022/09/19 05:23:11;;;;;;;1.45;0.50;;;;;;;23.90;35.73;98823.41;4739613;30;20028;-84
2022/09/19 05:25:40;;;;;;;1.75;0.50;;;;;;;23.98;35.64;98830.84;4758832;30;20122;-84
2022/09/19 05:28:06;;;;;;;0.40;0.40;;;;;;;23.97;35.51;98819.13;4743327;30;20024;-84
2022/09/19 05:30:36;;;;;;;0.43;0.40;;;;;;;23.98;35.49;98822.66;4722241;30;20143;-84
2022/09/19 05:33:02;;;;;;;0.40;0.40;;;;;;;24.04;35.58;98835.00;4724833;30;20414;-85
2022/09/19 05:35:29;;;;;;;0.50;0.50;;;;;;;24.02;35.14;98829.06;4757777;30;20032;-84
2022/09/19 05:37:54;;;;;;;0.35;0.35;;;;;;;23.95;35.29;98832.25;4721237;30;20039;-83
2022/09/19 05:40:20;;;;;;;0.40;0.40;;;;;;;24.00;35.41;98834.84;4741399;30;20032;-84
2022/09/19 05:42:50;;;;;;;0.40;0.40;;;;;;;23.87;35.27;98818.56;4744446;30;20032;-84
2022/09/19 05:45:16;;;;;;;0.60;0.50;;;;;;;23.91;35.40;98835.94;4739166;30;20166;-84
2022/09/19 05:47:41;;;;;;;0.45;0.45;;;;;;;23.93;35.59;98839.16;4729853;30;20112;-84
2022/09/19 05:50:08;;;;;;;0.50;0.50;;;;;;;23.71;35.44;98804.53;4755475;30;20136;-83
2022/09/19 05:55:22;;;;;;;0.60;0.45;;;;;;;23.70;35.01;98822.81;4740475;30;20402;-84
2022/09/19 05:57:57;;;;;;;0.50;0.50;;;;;;;23.70;34.87;98820.09;4754362;30;20035;-84
2022/09/19 06:00:25;;;;;;;0.47;0.47;;;;;;;23.76;34.53;98829.72;4739894;30;20079;-84
2022/09/19 06:03:00;;;;;;;0.60;0.50;;;;;;;23.79;34.33;98831.03;4739591;30;20115;-83
2022/09/19 06:05:27;;;;;;;0.40;0.40;;;;;;;23.85;34.21;98826.28;4740367;30;20509;-84
2022/09/19 06:07:59;;;;;;;1.17;0.70;;;;;;;23.86;34.19;98830.63;4720912;30;20059;-84
2022/09/19 06:10:25;;;;;;;1.45;0.50;;;;;;;23.91;33.95;98828.56;4742439;30;20472;-84
2022/09/19 06:12:53;;;;;;;0.45;0.45;;;;;;;23.85;33.84;98815.38;4738146;30;20054;-84
2022/09/19 06:15:18;;;;;;;0.50;0.50;;;;;;;23.93;33.55;98809.94;4735612;30;20468;-84
2022/09/19 06:17:47;;;;;;;0.40;0.40;;;;;;;23.89;33.70;98795.34;4750976;30;20119;-84
2022/09/19 06:20:14;;;;;;;0.52;0.52;;;;;;;23.96;33.51;98806.59;4735525;30;20084;-84
2022/09/19 06:22:40;;;;;;;0.55;0.50;;;;;;;23.89;33.61;98800.78;4757446;30;20038;-84
2022/09/19 06:25:06;;;;;;;0.82;0.50;;;;;;;24.03;33.52;98816.25;4749918;30;20031;-84
2022/09/19 06:27:32;;;;;;;0.35;0.35;;;;;;;24.07;33.16;98811.75;4759608;30;20028;-84
2022/09/19 06:29:58;;;;;;;0.40;0.40;;;;;;;24.11;33.42;98829.09;4750852;30;20036;-84
2022/09/19 06:32:24;;;;;;;0.40;0.40;;;;;;;24.03;33.32;98810.81;4724883;30;20044;-84
2022/09/19 06:34:49;;;;;;;0.70;0.40;;;;;;;24.15;33.08;98836.34;4729324;30;20050;-84
2022/09/19 06:37:15;;;;;;;1.48;0.55;;;;;;;24.10;33.01;98825.59;4729055;30;20043;-85
2022/09/19 06:39:46;;;;;;;0.50;0.50;;;;;;;24.15;33.29;98830.91;4735657;30;20071;-85
2022/09/19 06:42:11;;;;;;;0.50;0.50;;;;;;;24.17;33.16;98833.31;4733503;30;20110;-85
2022/09/19 06:44:37;;;;;;;0.43;0.40;;;;;;;24.24;33.25;98849.22;4738962;30;20130;-84
2022/09/19 06:47:04;;;;;;;0.45;0.45;;;;;;;24.17;33.14;98834.09;4729484;30;20478;-85
2022/09/19 06:49:30;;;;;;;0.40;0.40;;;;;;;24.19;32.95;98834.59;4754109;30;20044;-85
2022/09/19 06:51:56;;;;;;;0.50;0.40;;;;;;;24.17;33.25;98833.31;4760766;30;20087;-85
2022/09/19 06:54:23;;;;;;;0.50;0.50;;;;;;;24.26;33.07;98842.31;4742249;30;20084;-85
2022/09/19 06:56:49;;;;;;;0.63;0.55;;;;;;;24.27;33.17;98848.59;4740088;30;20035;-85
2022/09/19 06:59:17;;;;;;;0.55;0.47;;;;;;;24.22;33.14;98830.44;4744669;30;20351;-85
2022/09/19 07:01:45;;;;;;;0.93;0.65;;;;;;;24.19;33.04;98820.94;4754856;30;20522;-85
2022/09/19 07:04:11;;;;;;;0.63;0.32;;;;;;;24.30;33.26;98831.56;4750368;30;20047;-85
2022/09/19 07:06:37;;;;;;;1.75;0.50;;;;;;;24.28;33.06;98823.69;4721472;30;20034;-84
2022/09/19 07:09:03;;;;;;;0.60;0.60;;;;;;;24.34;33.03;98833.38;4741795;30;20032;-84
2022/09/19 07:11:29;;;;;;;0.90;0.55;;;;;;;24.36;32.89;98824.84;4741885;30;20482;-84
2022/09/19 07:13:55;;;;;;;0.50;0.50;;;;;;;24.32;32.96;98823.91;4744414;30;20043;-84
2022/09/19 07:16:20;;;;;;;0.50;0.50;;;;;;;24.32;32.96;98818.44;4735034;30;20032;-84
2022/09/19 07:18:46;;;;;;;0.50;0.50;;;;;;;24.35;32.97;98820.50;4754375;30;20123;-84
2022/09/19 07:21:12;;;;;;;0.57;0.50;;;;;;;24.32;32.89;98823.91;4726781;30;20039;-84
2022/09/19 07:23:37;;;;;;;0.88;0.50;;;;;;;24.35;32.88;98824.06;4734056;30;20514;-84
2022/09/19 07:26:03;;;;;;;0.40;0.40;;;;;;;24.42;32.79;98829.03;4749026;30;20042;-84
2022/09/19 07:28:30;;;;;;;0.47;0.47;;;;;;;24.48;32.69;98841.44;4735818;30;20073;-85
2022/09/19 07:30:57;;;;;;;0.70;0.63;;;;;;;24.48;32.95;98840.63;4739035;30;20036;-85
2022/09/19 07:33:25;;;;;;;0.50;0.50;;;;;;;24.42;33.11;98828.25;4731531;30;20035;-85
2022/09/19 07:35:53;;;;;;;0.93;0.57;;;;;;;24.45;32.91;98835.81;4741505;30;20043;-84
2022/09/19 07:38:19;;;;;;;0.63;0.40;;;;;;;24.47;33.00;98842.53;4738803;30;20067;-84
2022/09/19 07:40:45;;;;;;;0.50;0.50;;;;;;;24.45;32.97;98827.59;4742324;30;20059;-84
2022/09/19 07:43:13;;;;;;;1.02;0.52;;;;;;;24.45;32.99;98827.59;4730131;30;20182;-84
2022/09/19 07:45:41;;;;;;;0.75;0.52;;;;;;;24.48;32.74;98833.22;4734701;30;20047;-84
2022/09/19 07:48:07;;;;;;;0.50;0.50;;;;;;;24.42;32.71;98823.56;4720755;30;20066;-85
2022/09/19 07:50:32;;;;;;;0.47;0.43;;;;;;;24.47;32.99;98826.16;4754550;30;20035;-84
2022/09/19 07:53:04;;;;;;;1.05;0.60;;;;;;;24.25;34.65;98840.72;4752571;30;20107;-85
2022/09/19 07:55:30;;;;;;;0.77;0.70;;;;;;;23.99;35.43;98824.25;4758296;30;20032;-85
2022/09/19 07:57:57;;;;;;;0.45;0.40;;;;;;;24.28;34.48;98833.81;4748028;30;20047;-84
2022/09/19 08:00:23;;;;;;;0.45;0.45;;;;;;;24.34;33.89;98821.66;4735072;30;20379;-84
2022/09/19 08:02:56;;;;;;;0.40;0.40;;;;;;;24.47;33.56;98834.34;4756566;30;20039;-84
2022/09/19 08:05:22;;;;;;;0.50;0.50;;;;;;;24.53;33.58;98832.28;4747577;30;20024;-84
2022/09/19 08:07:47;;;;;;;0.75;0.50;;;;;;;24.35;35.00;98812.31;4746022;30;20398;-83
2022/09/19 08:10:15;;;;;;;0.35;0.35;;;;;;;23.97;36.32;98826.47;4728073;30;20126;-84
2022/09/19 08:12:44;;;;;;;0.40;0.40;;;;;;;24.23;34.92;98828.50;4749773;30;20482;-84
2022/09/19 08:15:17;;;;;;;0.30;0.30;;;;;;;24.31;34.56;98817.63;4754630;30;20039;-84
2022/09/19 08:17:59;;;;;;;0.47;0.47;;;;;;;24.44;34.16;98824.09;4735951;30;20040;-84
2022/09/19 08:20:27;;;;;;;0.50;0.50;;;;;;;24.50;33.95;98825.53;4754222;30;20549;-84
2022/09/19 08:22:57;;;;;;;0.43;0.40;;;;;;;24.48;34.16;98821.53;4725096;30;20042;-84
2022/09/19 08:25:24;;;;;;;0.40;0.40;;;;;;;24.08;36.62;98836.00;4733974;30;20059;-84
2022/09/19 08:27:51;;;;;;;0.50;0.50;;;;;;;24.17;35.62;98816.94;4741720;30;20093;-84
2022/09/19 08:30:22;;;;;;;0.43;0.40;;;;;;;24.35;35.11;98823.25;4741178;30;20032;-84
2022/09/19 08:32:49;;;;;;;0.50;0.50;;;;;;;24.36;34.53;98812.00;4723812;30;20032;-84
2022/09/19 08:35:15;;;;;;;0.35;0.35;;;;;;;24.44;34.15;98812.34;4726606;30;20402;-84
2022/09/19 08:37:41;;;;;;;0.47;0.47;;;;;;;24.52;33.94;98815.09;4742477;30;20040;-84
2022/09/19 08:40:28;;;;;;;0.40;0.40;;;;;;;24.55;33.94;98817.22;4746407;30;20509;-84
2022/09/19 08:43:26;;;;;;;0.40;0.40;;;;;;;24.08;36.80;98824.31;4763151;30;20036;-84
2022/09/19 08:46:03;;;;;;;0.30;0.30;;;;;;;24.25;35.46;98810.72;4760855;30;20058;-84
2022/09/19 08:48:38;;;;;;;0.40;0.40;;;;;;;24.42;34.81;98815.38;4745679;30;20119;-84
2022/09/19 08:51:06;;;;;;;0.52;0.50;;;;;;;24.45;34.55;98812.03;4758987;30;20050;-84
2022/09/19 08:53:37;;;;;;;1.10;0.50;;;;;;;24.55;34.20;98811.75;4746502;30;20043;-84
2022/09/19 08:56:02;;;;;;;0.30;0.30;;;;;;;24.55;34.18;98810.97;4722975;30;20096;-84
2022/09/19 08:58:29;;;;;;;0.30;0.30;;;;;;;24.28;36.25;98809.25;4759067;30;20027;-84
2022/09/19 09:00:55;;;;;;;0.40;0.40;;;;;;;24.25;35.42;98801.69;4722682;30;20395;-85
2022/09/19 09:03:24;;;;;;;0.40;0.40;;;;;;;24.30;35.40;98793.34;4737487;30;20122;-84
2022/09/19 09:06:14;;;;;;;1.65;0.40;;;;;;;24.49;34.41;98807.56;4732889;30;20044;-85
2022/09/19 09:09:04;;;;;;;0.40;0.40;;;;;;;24.57;34.08;98805.97;4754727;30;20040;-85
2022/09/19 09:11:30;;;;;;;0.30;0.30;;;;;;;24.61;33.92;98798.78;4765386;30;20478;-85
2022/09/19 09:14:05;;;;;;;0.20;0.20;;;;;;;24.58;35.01;98798.56;4767633;30;20023;-85
2022/09/19 09:16:34;;;;;;;0.60;0.40;;;;;;;24.17;36.62;98790.44;4748133;30;20351;-84
2022/09/19 09:19:17;;;;;;;0.60;0.40;;;;;;;24.40;35.32;98789.53;4760889;30;20036;-85
2022/09/19 09:22:04;;;;;;;0.40;0.30;;;;;;;24.50;34.66;98789.22;4761112;30;20040;-85
2022/09/19 09:24:36;;;;;;;0.55;0.45;;;;;;;24.49;34.67;98780.25;4762969;30;20276;-85
2022/09/19 09:27:03;;;;;;;0.32;0.30;;;;;;;24.54;34.39;98782.03;4743362;30;20205;-86
2022/09/19 09:29:50;;;;;;;0.30;0.30;;;;;;;24.26;36.33;98789.66;4731132;30;20109;-85
2022/09/19 09:32:34;;;;;;;0.57;0.40;;;;;;;24.26;35.78;98781.47;4757916;30;20047;-86
2022/09/19 09:35:04;;;;;;;0.30;0.30;;;;;;;24.45;35.06;98792.91;4745109;30;20024;-85
2022/09/19 09:37:56;;;;;;;0.52;0.40;;;;;;;24.59;34.79;98783.81;4737316;30;20089;-85
2022/09/19 09:43:59;;;;;;;0.40;0.40;;;;;;;24.68;34.05;98784.59;4745506;30;20528;-86
2022/09/19 09:46:35;;;;;;;0.40;0.40;;;;;;;24.14;36.44;98788.34;4759694;30;20451;-85
2022/09/19 09:49:01;;;;;;;0.40;0.35;;;;;;;24.30;35.51;98787.91;4728389;30;20072;-86
2022/09/19 09:51:30;;;;;;;0.30;0.30;;;;;;;24.46;35.20;98800.00;4736966;30;20030;-86
2022/09/19 09:56:14;;;;;;;0.40;0.40;;;;;;;24.51;34.31;98790.84;4768206;30;20390;-87
2022/09/19 09:57:24;;;;;;;0.30;0.30;;;;;;;24.50;34.04;98776.38;4743559;30;20066;-87
2022/09/19 10:03:36;;;;;;;0.20;0.20;;;;;;;24.35;36.57;98817.78;4767531;30;20105;-85
2022/09/19 10:06:11;;;;;;;0.37;0.37;;;;;;;24.42;35.64;98801.72;4746812;30;20505;-85
2022/09/19 10:08:37;;;;;;;0.28;0.28;;;;;;;24.51;34.78;98809.97;4766428;30;20059;-85
2022/09/19 10:11:09;;;;;;;0.35;0.35;;;;;;;24.51;34.57;98794.38;4759167;30;20085;-86
2022/09/19 10:13:39;;;;;;;0.30;0.30;;;;;;;24.33;35.67;98787.28;4721511;30;20036;-86
2022/09/19 10:16:04;;;;;;;0.40;0.40;;;;;;;24.14;36.27;98793.78;4758830;30;20032;-86
2022/09/19 10:18:45;;;;;;;0.40;0.40;;;;;;;24.43;35.34;98802.56;4743082;30;20646;-87
2022/09/19 10:21:11;;;;;;;0.40;0.40;;;;;;;24.60;34.45;98810.00;4730651;30;20416;-86
2022/09/19 10:23:37;;;;;;;0.70;0.40;;;;;;;24.62;35.18;98803.09;4739359;30;20133;-87
2022/09/19 10:26:04;;;;;;;0.47;0.47;;;;;;;24.22;36.43;98802.34;4753460;30;20405;-87
2022/09/19 10:28:43;;;;;;;0.30;0.30;;;;;;;24.43;35.41;98803.34;4736337;30;20024;-87
2022/09/19 10:31:44;;;;;;;0.30;0.30;;;;;;;24.57;34.57;98813.38;4734210;30;20039;-86
2022/09/19 10:34:27;;;;;;;0.43;0.43;;;;;;;24.59;34.41;98805.66;4753557;30;20071;-87
2022/09/19 10:36:53;;;;;;;0.40;0.40;;;;;;;24.67;34.08;98804.88;4746435;30;20027;-87
2022/09/19 10:39:20;;;;;;;0.40;0.40;;;;;;;24.42;35.86;98790.00;4745295;30;20071;-88
2022/09/19 10:41:46;;;;;;;0.40;0.40;;;;;;;24.16;36.33;98788.84;4741541;30;20059;-88
2022/09/19 10:44:19;;;;;;;0.30;0.30;;;;;;;24.46;35.21;98810.91;4732401;30;20490;-87
2022/09/19 10:47:13;;;;;;;0.47;0.40;;;;;;;24.57;34.71;98797.78;4748500;30;20032;-88
2022/09/19 10:49:46;;;;;;;0.45;0.40;;;;;;;24.67;34.21;98808.41;4735343;30;20129;-87
2022/09/19 10:52:18;;;;;;;1.30;0.40;;;;;;;24.64;34.11;98795.38;4744713;30;20478;-87
2022/09/19 10:54:45;;;;;;;1.85;0.88;;;;;;;24.25;36.42;98791.59;4735966;30;20040;-87
2022/09/19 10:57:45;;;;;;;1.48;0.32;;;;;;;24.50;35.32;98802.88;4745644;30;20413;-87
2022/09/19 11:00:28;;;;;;;0.60;0.50;;;;;;;24.56;35.03;98807.13;4758919;30;20032;-86
2022/09/19 11:03:01;;;;;;;0.40;0.40;;;;;;;24.59;34.43;98789.28;4728838;30;20046;-87
2022/09/19 11:05:29;;;;;;;0.52;0.50;;;;;;;24.66;34.18;98795.84;4751099;30;20035;-88
2022/09/19 11:07:57;;;;;;;0.50;0.50;;;;;;;24.75;33.91;98804.06;4722669;30;20043;-87
2022/09/19 11:10:38;;;;;;;0.35;0.35;;;;;;;24.47;35.86;98798.06;4735639;30;20390;-87
2022/09/19 11:13:16;;;;;;;0.40;0.40;;;;;;;24.41;36.23;98805.59;4738246;30;20032;-87
2022/09/19 11:16:19;;;;;;;0.43;0.43;;;;;;;24.58;35.22;98809.50;4755734;30;20032;-87
2022/09/19 11:19:14;;;;;;;0.30;0.30;;;;;;;24.71;34.49;98800.34;4765923;30;20046;-87
2022/09/19 11:21:55;;;;;;;0.63;0.50;;;;;;;24.79;34.40;98799.56;4756578;30;20141;-87
2022/09/19 11:24:41;;;;;;;0.50;0.47;;;;;;;24.82;33.82;98798.94;4755895;30;20039;-86
2022/09/19 11:27:19;;;;;;;0.75;0.40;;;;;;;24.53;35.60;98800.31;4741902;30;20031;-87
2022/09/19 11:30:11;;;;;;;0.40;0.40;;;;;;;24.49;35.80;98798.53;4756224;30;20119;-86
2022/09/19 11:33:04;;;;;;;0.50;0.50;;;;;;;24.63;35.06;98796.50;4765160;30;20046;-85
2022/09/19 11:35:50;;;;;;;0.75;0.60;;;;;;;24.73;34.44;98795.38;4757312;30;20134;-85
2022/09/19 11:38:19;;;;;;;0.60;0.52;;;;;;;24.66;35.26;98784.13;4743557;30;20071;-86
2022/09/19 11:41:14;;;;;;;0.60;0.60;;;;;;;24.40;36.07;98787.59;4765792;30;20036;-87
2022/09/19 11:43:52;;;;;;;0.40;0.40;;;;;;;24.59;35.43;98794.72;4764944;30;20044;-86
2022/09/19 11:46:20;;;;;;;1.20;0.52;;;;;;;24.66;34.62;98800.53;4744320;30;20130;-86
2022/09/19 11:48:54;;;;;;;0.60;0.47;;;;;;;24.43;36.41;98797.88;4739599;30;20352;-86
2022/09/19 11:51:42;;;;;;;0.40;0.40;;;;;;;24.47;35.74;98787.94;4745665;30;20414;-86
2022/09/19 11:54:14;;;;;;;0.80;0.50;;;;;;;24.60;35.09;98785.44;4748009;30;20035;-86
2022/09/19 11:57:24;;;;;;;0.38;0.38;;;;;;;24.71;34.65;98784.75;4757066;30;20096;-85
2022/09/19 12:00:19;;;;;;;0.50;0.50;;;;;;;24.79;33.99;98794.09;4722246;30;20039;-85
2022/09/19 12:03:03;;;;;;;0.50;0.50;;;;;;;24.38;36.40;98790.66;4764365;30;20052;-85
2022/09/19 12:05:53;;;;;;;0.60;0.60;;;;;;;24.44;35.77;98777.66;4755132;30;20391;-86
2022/09/19 12:08:58;;;;;;;0.50;0.50;;;;;;;24.59;35.10;98781.06;4739443;30;20134;-86
2022/09/19 12:11:53;;;;;;;0.73;0.60;;;;;;;24.51;35.88;98791.66;4752612;30;20040;-85